Time;durP1;ratioP1;P1;durP2;ratioP2;P2;SDS_P1;SDS_P2;PMS_P1;PMS_P2;Temp;Humidity;BMP_temperature;BMP_pressure;BME280_temperature;BME280_humidity;BME280_pressure;Samples;Min_cycle;Max_cycle;Signal;HPM_P1;HPM_P2
2021/01/04 00:01:44;;;;;;;34.47;28.05;;;153.90;2252.80;;;;;;5036686;28;20045;-76
2021/01/04 00:04:26;;;;;;;29.42;18.67;;;153.90;2252.80;;;;;;5012170;28;20349;-76
2021/01/04 00:06:54;;;;;;;26.52;18.88;;;154.00;2252.80;;;;;;5017851;28;20026;-77
2021/01/04 00:09:27;;;;;;;42.45;29.23;;;154.00;2252.80;;;;;;5019184;28;20136;-76
2021/01/04 00:12:01;;;;;;;36.97;27.35;;;154.00;2252.80;;;;;;5038041;28;20025;-76
2021/01/04 00:14:33;;;;;;;32.67;27.00;;;154.00;2252.80;;;;;;5037721;28;20041;-77
2021/01/04 00:17:03;;;;;;;32.03;21.75;;;154.00;2252.80;;;;;;5024648;28;20064;-76
2021/01/04 00:19:53;;;;;;;28.65;16.23;;;154.00;2252.80;;;;;;5040719;28;20429;-77
2021/01/04 00:22:35;;;;;;;32.55;22.27;;;154.00;2252.80;;;;;;5023149;28;20036;-76
2021/01/04 00:25:31;;;;;;;23.88;17.38;;;154.10;2252.80;;;;;;5037291;28;20087;-76
2021/01/04 00:28:10;;;;;;;29.75;20.92;;;154.00;2252.80;;;;;;5040623;28;20037;-77
2021/01/04 00:30:45;;;;;;;30.17;23.77;;;154.00;2252.80;;;;;;5023221;28;20405;-76
2021/01/04 00:33:28;;;;;;;28.55;18.45;;;154.00;2252.80;;;;;;5023073;28;20024;-77
2021/01/04 00:35:58;;;;;;;20.73;15.63;;;154.00;2252.80;;;;;;5045021;28;20032;-77
2021/01/04 00:38:49;;;;;;;21.45;15.15;;;154.00;2252.80;;;;;;5041129;28;20083;-76
2021/01/04 00:41:34;;;;;;;19.88;15.23;;;154.10;2252.80;;;;;;5035457;28;20025;-76
2021/01/04 00:44:05;;;;;;;21.73;15.30;;;154.10;2252.80;;;;;;5040030;28;20483;-76
2021/01/04 00:46:44;;;;;;;18.98;13.40;;;154.20;2252.80;;;;;;5039625;28;20061;-76
2021/01/04 00:49:31;;;;;;;19.88;13.55;;;154.20;2252.80;;;;;;5020167;28;20436;-76
2021/01/04 00:52:11;;;;;;;22.35;13.82;;;154.20;2252.80;;;;;;5034199;28;20072;-76
2021/01/04 00:54:54;;;;;;;24.45;16.63;;;154.20;2252.80;;;;;;5021867;28;20036;-77
2021/01/04 00:57:48;;;;;;;19.42;12.90;;;154.20;2252.80;;;;;;5019144;28;20106;-77
2021/01/04 01:00:46;;;;;;;20.08;15.13;;;154.30;2252.80;;;;;;5037857;28;20032;-76
2021/01/04 01:03:21;;;;;;;23.42;16.48;;;154.30;2252.80;;;;;;5016584;28;20033;-76
2021/01/04 01:05:55;;;;;;;18.50;14.32;;;154.30;2252.80;;;;;;5023110;28;20513;-76
2021/01/04 01:08:27;;;;;;;16.83;11.75;;;154.30;2252.80;;;;;;5039500;28;20112;-76
2021/01/04 01:11:22;;;;;;;16.05;11.95;;;154.30;2252.80;;;;;;5041210;28;20033;-76
2021/01/04 01:13:56;;;;;;;18.08;12.80;;;154.30;2252.80;;;;;;5036486;28;20034;-77
2021/01/04 01:16:59;;;;;;;17.13;12.38;;;154.30;2252.80;;;;;;5042218;28;20033;-77
2021/01/04 01:19:47;;;;;;;17.38;12.35;;;154.40;2252.80;;;;;;5018504;28;20029;-77
2021/01/04 01:22:20;;;;;;;16.55;10.13;;;154.40;2252.80;;;;;;5036450;28;20022;-76
2021/01/04 01:24:47;;;;;;;17.27;13.13;;;154.40;2252.80;;;;;;5018299;28;20041;-76
2021/01/04 01:28:01;;;;;;;15.70;10.70;;;154.40;2252.80;;;;;;5021227;28;20032;-77
2021/01/04 01:30:58;;;;;;;17.77;12.38;;;154.40;2252.80;;;;;;5014564;28;20069;-76
2021/01/04 01:33:54;;;;;;;15.73;10.88;;;154.40;2252.80;;;;;;5037962;28;20028;-77
2021/01/04 01:36:23;;;;;;;15.82;11.15;;;154.40;2252.80;;;;;;5036655;28;20029;-77
2021/01/04 01:39:09;;;;;;;16.77;10.52;;;154.40;2252.80;;;;;;5019198;28;20030;-77
2021/01/04 01:42:15;;;;;;;15.43;10.82;;;154.40;2252.80;;;;;;5019287;28;20021;-77
2021/01/04 01:45:06;;;;;;;15.85;11.73;;;154.50;2252.80;;;;;;4991071;28;20446;-77
2021/01/04 01:47:39;;;;;;;17.00;11.63;;;154.40;2252.80;;;;;;5019771;28;20477;-77
2021/01/04 01:50:17;;;;;;;15.35;11.35;;;154.40;2252.80;;;;;;5038673;28;20034;-76
2021/01/04 01:53:12;;;;;;;19.85;13.55;;;154.40;2252.80;;;;;;5038144;28;20021;-76
2021/01/04 01:56:05;;;;;;;30.67;20.80;;;154.40;2252.80;;;;;;5006046;28;20068;-77
2021/01/04 01:58:54;;;;;;;61.03;38.97;;;154.40;2252.80;;;;;;5021032;28;20445;-77
2021/01/04 02:01:41;;;;;;;23.48;17.15;;;154.40;2252.80;;;;;;5039689;28;20044;-77
2021/01/04 02:04:39;;;;;;;26.75;19.63;;;154.40;2252.80;;;;;;5019390;28;20508;-77
2021/01/04 02:07:34;;;;;;;17.20;12.25;;;154.40;2252.80;;;;;;4986320;28;20045;-76
2021/01/04 02:10:11;;;;;;;18.73;14.10;;;154.40;2252.80;;;;;;5025786;28;20033;-77
2021/01/04 02:12:58;;;;;;;26.40;18.45;;;154.40;2252.80;;;;;;5024497;28;20025;-77
2021/01/04 02:15:31;;;;;;;16.33;11.60;;;154.40;2252.80;;;;;;5034146;28;20032;-77
2021/01/04 02:18:24;;;;;;;27.15;18.20;;;154.40;2252.80;;;;;;5016338;28;20022;-77
2021/01/04 02:21:28;;;;;;;17.95;12.02;;;154.40;2252.80;;;;;;5038663;28;20077;-76
2021/01/04 02:24:14;;;;;;;17.33;12.95;;;154.40;2252.80;;;;;;5019627;28;20053;-77
2021/01/04 02:27:11;;;;;;;16.88;12.93;;;154.40;2252.80;;;;;;5021343;28;20284;-76
2021/01/04 02:29:37;;;;;;;23.25;17.30;;;154.30;2252.80;;;;;;5003963;28;20038;-77
2021/01/04 02:32:07;;;;;;;18.80;14.15;;;154.30;2252.80;;;;;;5037380;28;20029;-77
2021/01/04 02:34:43;;;;;;;22.25;16.08;;;154.30;2252.80;;;;;;5038263;28;20017;-77
2021/01/04 02:37:11;;;;;;;17.88;11.10;;;154.30;2252.80;;;;;;5026211;28;20048;-76
2021/01/04 02:39:40;;;;;;;17.63;12.75;;;154.30;2252.80;;;;;;5018085;28;20441;-76
2021/01/04 02:42:12;;;;;;;16.77;13.05;;;154.20;2252.80;;;;;;5019429;28;20048;-77
2021/01/04 02:44:38;;;;;;;15.63;12.52;;;154.30;2252.80;;;;;;5012989;28;20327;-77
2021/01/04 02:47:13;;;;;;;16.30;10.50;;;154.20;2252.80;;;;;;5022784;28;20018;-76
2021/01/04 02:49:39;;;;;;;13.88;9.65;;;154.20;2252.80;;;;;;5027348;28;20021;-77
2021/01/04 02:52:11;;;;;;;16.35;11.38;;;154.30;2252.80;;;;;;5017925;28;20076;-76
2021/01/04 02:54:48;;;;;;;18.77;12.45;;;154.30;2252.80;;;;;;5008362;28;20084;-76
2021/01/04 02:57:36;;;;;;;17.00;12.10;;;154.30;2252.80;;;;;;5007196;28;20025;-77
2021/01/04 03:00:09;;;;;;;18.05;13.35;;;154.30;2252.80;;;;;;5036761;28;20033;-76
2021/01/04 03:02:47;;;;;;;15.57;11.85;;;154.30;2252.80;;;;;;5005095;28;20319;-76
2021/01/04 03:05:16;;;;;;;18.73;13.32;;;154.30;2252.80;;;;;;5024507;28;20349;-77
2021/01/04 03:07:48;;;;;;;18.77;12.57;;;154.30;2252.80;;;;;;5039140;28;20085;-76
2021/01/04 03:10:30;;;;;;;14.52;10.25;;;154.30;2252.80;;;;;;5029740;28;20037;-76
2021/01/04 03:13:05;;;;;;;17.10;12.20;;;154.30;2252.80;;;;;;5021115;28;20021;-76
2021/01/04 03:15:34;;;;;;;;;;;154.30;2252.80;;;;;;5037638;28;20025;-76
2021/01/04 03:18:16;;;;;;;17.85;13.35;;;154.20;2252.80;;;;;;5038878;28;19909;-77
2021/01/04 03:20:42;;;;;;;17.90;13.18;;;154.20;2252.80;;;;;;5018246;28;20433;-76
2021/01/04 03:23:09;;;;;;;17.80;13.05;;;154.20;2252.80;;;;;;5025433;28;20456;-77
2021/01/04 03:26:00;;;;;;;20.65;14.57;;;154.30;2252.80;;;;;;5014034;28;20053;-76
2021/01/04 03:28:29;;;;;;;14.48;11.93;;;154.20;2252.80;;;;;;5021860;28;20030;-76
2021/01/04 03:30:55;;;;;;;15.02;11.48;;;154.20;2252.80;;;;;;5028196;28;20029;-77
2021/01/04 03:33:21;;;;;;;13.85;11.88;;;154.20;2252.80;;;;;;5014259;28;20380;-77
2021/01/04 03:35:49;;;;;;;17.90;12.02;;;154.30;2252.80;;;;;;5019489;28;20025;-77
2021/01/04 03:38:16;;;;;;;21.40;15.30;;;154.30;2252.80;;;;;;5013988;28;20054;-76
2021/01/04 03:40:42;;;;;;;14.25;10.82;;;154.30;2252.80;;;;;;5013240;28;20052;-76
2021/01/04 03:43:08;;;;;;;17.67;13.00;;;154.30;2252.80;;;;;;5023963;28;20434;-77
2021/01/04 03:45:34;;;;;;;18.08;11.20;;;154.30;2252.80;;;;;;5039574;28;20030;-77
2021/01/04 03:47:59;;;;;;;17.92;15.50;;;154.30;2252.80;;;;;;5007475;28;20045;-77
2021/01/04 03:50:25;;;;;;;16.52;11.93;;;154.30;2252.80;;;;;;5034834;28;20068;-77
2021/01/04 03:52:51;;;;;;;17.05;12.48;;;154.30;2252.80;;;;;;5041588;28;20025;-77
2021/01/04 03:55:18;;;;;;;16.05;12.27;;;154.30;2252.80;;;;;;5031970;28;20021;-76
2021/01/04 03:57:44;;;;;;;20.00;13.57;;;154.30;2252.80;;;;;;5024425;28;20060;-78
2021/01/04 04:00:14;;;;;;;16.98;11.90;;;154.30;2252.80;;;;;;5042645;28;20048;-77
2021/01/04 04:02:40;;;;;;;15.88;12.25;;;154.30;2252.80;;;;;;5020543;28;20029;-76
2021/01/04 04:05:07;;;;;;;15.90;12.02;;;154.50;2252.80;;;;;;5018238;28;20034;-76
2021/01/04 04:07:34;;;;;;;15.95;11.30;;;154.30;2252.80;;;;;;5012036;28;20112;-76
2021/01/04 04:10:01;;;;;;;17.00;11.00;;;154.30;2252.80;;;;;;5028781;28;20010;-77
2021/01/04 04:12:27;;;;;;;14.20;10.70;;;154.30;2252.80;;;;;;5015068;28;20022;-76
2021/01/04 04:14:53;;;;;;;15.50;12.35;;;154.30;2252.80;;;;;;5027319;28;20056;-77
2021/01/04 04:17:19;;;;;;;16.08;12.25;;;154.30;2252.80;;;;;;5038804;28;20084;-76
2021/01/04 04:19:49;;;;;;;16.75;12.43;;;154.30;2252.80;;;;;;5024378;28;20116;-76
2021/01/04 04:22:15;;;;;;;15.85;10.98;;;154.30;2252.80;;;;;;5013165;28;20089;-76
2021/01/04 04:24:46;;;;;;;14.10;11.45;;;154.30;2252.80;;;;;;5027614;28;20026;-77
2021/01/04 04:27:13;;;;;;;13.63;10.25;;;154.30;2252.80;;;;;;5037264;28;20128;-76
2021/01/04 04:29:41;;;;;;;15.32;11.50;;;154.30;2252.80;;;;;;5025024;28;20033;-76
2021/01/04 04:32:07;;;;;;;14.18;10.52;;;154.30;2252.80;;;;;;5041723;28;20030;-77
2021/01/04 04:34:34;;;;;;;13.55;9.77;;;154.30;2252.80;;;;;;5022771;28;20021;-76
2021/01/04 04:37:00;;;;;;;13.85;10.07;;;154.30;2252.80;;;;;;5037032;28;20052;-77
2021/01/04 04:39:26;;;;;;;15.52;10.82;;;154.30;2252.80;;;;;;5023133;28;20442;-76
2021/01/04 04:41:54;;;;;;;15.93;10.48;;;154.30;2252.80;;;;;;5022511;28;20053;-77
2021/01/04 04:44:41;;;;;;;14.75;11.85;;;154.30;2252.80;;;;;;5015879;28;20030;-76
2021/01/04 04:47:34;;;;;;;15.75;11.05;;;154.30;2252.80;;;;;;5035432;28;20099;-77
2021/01/04 04:50:42;;;;;;;16.88;10.27;;;154.30;2252.80;;;;;;5005700;28;20041;-76
2021/01/04 04:53:10;;;;;;;14.63;11.02;;;154.20;2252.80;;;;;;5029194;28;20025;-76
2021/01/04 04:56:00;;;;;;;17.75;12.45;;;154.20;2252.80;;;;;;5029814;28;20022;-76
2021/01/04 04:58:32;;;;;;;15.48;10.77;;;154.20;2252.80;;;;;;5016207;28;20021;-77
2021/01/04 05:01:23;;;;;;;18.38;12.70;;;154.20;2252.80;;;;;;5021416;28;20022;-76
2021/01/04 05:04:11;;;;;;;17.48;12.63;;;154.20;2252.80;;;;;;5039730;28;20342;-77
2021/01/04 05:06:37;;;;;;;16.85;12.02;;;154.10;2252.80;;;;;;5022747;28;20441;-77
2021/01/04 05:09:31;;;;;;;17.05;12.07;;;154.10;2252.80;;;;;;5024211;28;20026;-77
2021/01/04 05:12:07;;;;;;;18.13;11.35;;;154.00;2252.80;;;;;;5039488;28;20048;-77
2021/01/04 05:14:39;;;;;;;20.80;15.75;;;154.00;2252.80;;;;;;5009033;28;20449;-77
2021/01/04 05:17:42;;;;;;;18.98;12.50;;;154.00;2252.80;;;;;;5024255;28;20029;-76
2021/01/04 05:20:25;;;;;;;19.23;12.98;;;154.00;2252.80;;;;;;4988561;28;20073;-78
2021/01/04 05:23:21;;;;;;;19.17;12.02;;;154.00;2252.80;;;;;;5019726;28;20033;-76
2021/01/04 05:26:24;;;;;;;19.02;12.07;;;154.00;2252.80;;;;;;5031775;28;20350;-77
2021/01/04 05:29:17;;;;;;;16.10;11.82;;;154.00;2252.80;;;;;;5009560;28;20033;-76
2021/01/04 05:32:17;;;;;;;17.35;12.80;;;154.00;2252.80;;;;;;5020205;28;20036;-76
2021/01/04 05:34:45;;;;;;;22.38;17.25;;;154.00;2252.80;;;;;;5007336;28;20052;-77
2021/01/04 05:37:34;;;;;;;23.55;14.45;;;154.00;2252.80;;;;;;5012407;28;20048;-76
2021/01/04 05:40:19;;;;;;;21.83;14.38;;;153.90;2252.80;;;;;;5030514;28;20164;-77
2021/01/04 05:43:22;;;;;;;20.60;15.68;;;154.00;2252.80;;;;;;5019859;28;20021;-77
2021/01/04 05:46:11;;;;;;;20.88;13.77;;;154.00;2252.80;;;;;;5010403;28;20235;-77
2021/01/04 05:49:19;;;;;;;25.83;16.55;;;154.00;2252.80;;;;;;5039076;28;20060;-77
2021/01/04 05:51:49;;;;;;;18.20;13.85;;;154.00;2252.80;;;;;;5032951;28;20021;-77
2021/01/04 05:54:33;;;;;;;24.70;17.17;;;154.00;2252.80;;;;;;5039090;28;20017;-77
2021/01/04 05:57:03;;;;;;;23.95;16.65;;;154.00;2252.80;;;;;;5032139;28;20414;-77
2021/01/04 05:59:29;;;;;;;37.10;21.42;;;154.00;2252.80;;;;;;5023991;28;20038;-77
2021/01/04 06:02:02;;;;;;;21.17;15.25;;;153.90;2252.80;;;;;;5004617;28;20032;-77
2021/01/04 06:04:28;;;;;;;31.70;22.70;;;153.90;2252.80;;;;;;5013162;28;20029;-77
2021/01/04 06:06:58;;;;;;;89.00;52.13;;;154.00;2252.80;;;;;;5021100;28;20030;-76
2021/01/04 06:09:24;;;;;;;383.83;200.90;;;153.90;2252.80;;;;;;5021239;28;20064;-77
2021/01/04 06:11:57;;;;;;;359.00;194.35;;;153.70;2252.80;;;;;;5032297;28;20032;-76
2021/01/04 06:14:29;;;;;;;484.25;299.35;;;153.90;2252.80;;;;;;5039184;28;20025;-76
2021/01/04 06:16:59;;;;;;;163.85;121.50;;;153.90;2252.80;;;;;;5039689;28;20033;-77
2021/01/04 06:19:25;;;;;;;121.70;72.75;;;153.80;2252.80;;;;;;5023385;28;20120;-77
2021/01/04 06:21:54;;;;;;;148.00;119.55;;;153.90;2252.80;;;;;;5022851;28;20307;-76
2021/01/04 06:24:25;;;;;;;89.90;79.80;;;153.90;2252.80;;;;;;5022868;28;20284;-77
2021/01/04 06:26:54;;;;;;;50.75;37.55;;;153.90;2252.80;;;;;;5020435;28;20052;-76
2021/01/04 06:29:40;;;;;;;56.75;39.00;;;153.80;2252.80;;;;;;5015605;28;20244;-76
2021/01/04 06:32:16;;;;;;;183.75;138.30;;;153.90;2252.80;;;;;;5011317;28;20025;-77
2021/01/04 06:34:49;;;;;;;93.45;72.18;;;153.90;2252.80;;;;;;5019433;28;20027;-77
2021/01/04 06:37:20;;;;;;;66.25;53.20;;;153.90;2252.80;;;;;;5036423;28;20044;-76
2021/01/04 06:39:58;;;;;;;86.45;71.78;;;153.90;2252.80;;;;;;5008034;28;20030;-77
2021/01/04 06:42:24;;;;;;;82.72;63.03;;;153.90;2252.80;;;;;;5021219;28;20025;-76
2021/01/04 06:45:16;;;;;;;45.70;33.65;;;153.90;2252.80;;;;;;5021423;28;20028;-76
2021/01/04 06:48:06;;;;;;;43.10;31.85;;;153.80;2252.80;;;;;;5032951;28;20029;-76
2021/01/04 06:50:50;;;;;;;36.42;26.65;;;153.90;2252.80;;;;;;5034484;28;20389;-77
2021/01/04 06:54:04;;;;;;;285.48;224.90;;;153.90;2252.80;;;;;;5006577;28;20018;-76
2021/01/04 06:56:36;;;;;;;42.05;30.48;;;153.90;2252.80;;;;;;4931304;29;20411;-76
2021/01/04 06:59:50;;;;;;;74.57;52.15;;;153.90;2252.80;;;;;;4992998;28;20033;-76
2021/01/04 07:02:53;;;;;;;184.63;129.52;;;154.00;2252.80;;;;;;4990443;28;20030;-77
2021/01/04 07:05:21;;;;;;;513.28;372.63;;;153.90;2252.80;;;;;;5031854;28;20354;-77
2021/01/04 07:08:26;;;;;;;98.78;86.45;;;153.90;2252.80;;;;;;5018199;28;20022;-77
2021/01/04 07:11:08;;;;;;;101.30;75.78;;;154.00;2252.80;;;;;;5039620;28;20084;-77
2021/01/04 07:14:02;;;;;;;136.32;100.07;;;154.00;2252.80;;;;;;5019274;28;20018;-76
2021/01/04 07:16:45;;;;;;;161.18;133.18;;;154.00;2252.80;;;;;;5018949;28;20022;-77
2021/01/04 07:19:30;;;;;;;259.33;219.25;;;153.90;2252.80;;;;;;5020206;28;20021;-77
2021/01/04 07:22:08;;;;;;;75.78;58.88;;;154.00;2252.80;;;;;;5016715;28;20132;-77
2021/01/04 07:25:07;;;;;;;116.70;96.57;;;154.10;2252.80;;;;;;5037357;28;20029;-77
2021/01/04 07:27:50;;;;;;;70.63;60.22;;;154.10;2252.80;;;;;;5038078;28;20041;-77
2021/01/04 07:30:22;;;;;;;46.72;37.13;;;154.20;2252.80;;;;;;5020797;28;20434;-76
2021/01/04 07:33:12;;;;;;;37.03;31.63;;;154.20;2252.80;;;;;;5017431;28;20033;-77
2021/01/04 07:35:59;;;;;;;53.05;33.38;;;154.20;2252.80;;;;;;5036236;28;20120;-77
2021/01/04 07:38:42;;;;;;;53.35;32.45;;;154.40;2252.80;;;;;;5023091;28;20026;-77
2021/01/04 07:41:37;;;;;;;61.60;42.55;;;154.40;2252.80;;;;;;5036424;28;20025;-76
2021/01/04 07:44:15;;;;;;;63.10;43.58;;;154.40;2252.80;;;;;;5021875;28;20032;-77
2021/01/04 07:47:27;;;;;;;69.15;43.50;;;154.40;2252.80;;;;;;5021418;28;20037;-77
2021/01/04 07:50:32;;;;;;;39.85;23.83;;;154.30;2252.80;;;;;;5021042;28;20021;-76
2021/01/04 07:53:04;;;;;;;26.33;19.65;;;154.20;2252.80;;;;;;5022092;28;20048;-76
2021/01/04 07:56:13;;;;;;;32.42;22.10;;;154.30;2252.80;;;;;;5038178;28;20029;-76
2021/01/04 07:59:01;;;;;;;36.47;27.10;;;154.30;2252.80;;;;;;4975099;28;20477;-76
2021/01/04 08:01:45;;;;;;;34.00;22.23;;;154.30;2252.80;;;;;;5012602;28;20026;-77
2021/01/04 08:04:58;;;;;;;34.78;23.45;;;154.40;2252.80;;;;;;5015023;28;20117;-77
2021/01/04 08:07:40;;;;;;;29.73;21.30;;;154.40;2252.80;;;;;;4925008;29;20472;-77
2021/01/04 08:10:43;;;;;;;31.15;21.45;;;154.50;2252.80;;;;;;5022470;28;20067;-77
2021/01/04 08:13:28;;;;;;;30.30;19.58;;;154.50;2252.80;;;;;;5016493;28;20041;-76
2021/01/04 08:16:13;;;;;;;40.20;25.95;;;179.20;2252.80;;;;;;5012555;28;20025;-76
2021/01/04 08:18:40;;;;;;;34.35;23.60;;;179.30;2252.80;;;;;;5016178;28;20036;-77
2021/01/04 08:21:25;;;;;;;34.42;24.52;;;179.30;2252.80;;;;;;5039745;28;20022;-77
2021/01/04 08:23:59;;;;;;;30.95;20.05;;;179.40;2252.80;;;;;;5012342;28;20026;-77
2021/01/04 08:26:57;;;;;;;30.03;21.00;;;179.50;2252.80;;;;;;5035134;28;20738;-77
2021/01/04 08:30:00;;;;;;;36.15;25.13;;;179.50;2252.80;;;;;;5038426;28;20021;-77
2021/01/04 08:32:50;;;;;;;36.80;22.65;;;179.50;2252.80;;;;;;5039408;28;20065;-77
2021/01/04 08:35:30;;;;;;;39.08;24.13;;;179.50;2252.80;;;;;;5028806;28;20025;-77
2021/01/04 08:38:34;;;;;;;36.63;24.95;;;179.50;2252.80;;;;;;5031252;28;20032;-77
2021/01/04 08:41:15;;;;;;;34.97;24.83;;;179.50;2252.80;;;;;;5013070;28;20105;-77
2021/01/04 08:43:48;;;;;;;38.22;25.90;;;179.50;2252.80;;;;;;5024534;28;20025;-77
2021/01/04 08:46:24;;;;;;;40.00;27.83;;;179.50;2252.80;;;;;;5016079;28;20029;-77
2021/01/04 08:48:54;;;;;;;37.80;23.65;;;179.50;2252.80;;;;;;5021620;28;20048;-77
2021/01/04 08:51:41;;;;;;;42.65;27.92;;;179.50;2252.80;;;;;;5021449;28;20048;-77
2021/01/04 08:54:10;;;;;;;52.10;33.08;;;179.50;2252.80;;;;;;5017786;28;20036;-78
2021/01/04 08:56:39;;;;;;;49.50;34.22;;;179.60;2252.80;;;;;;5046382;28;20021;-77
2021/01/04 08:59:34;;;;;;;51.35;33.53;;;179.70;2252.80;;;;;;5026987;28;20033;-77
2021/01/04 09:02:43;;;;;;;56.28;37.60;;;179.80;2252.80;;;;;;5017380;28;20164;-77
2021/01/04 09:05:27;;;;;;;42.65;29.55;;;179.90;2252.80;;;;;;5043958;28;20064;-77
2021/01/04 09:07:56;;;;;;;35.42;24.75;;;179.80;2252.80;;;;;;5038167;28;20025;-77
2021/01/04 09:10:49;;;;;;;35.95;24.02;;;179.70;2252.80;;;;;;5043932;28;20021;-77
2021/01/04 09:13:33;;;;;;;35.35;22.48;;;179.70;2252.80;;;;;;5023429;28;20044;-77
2021/01/04 09:16:31;;;;;;;42.38;27.23;;;179.70;2252.80;;;;;;5041541;28;20513;-77
2021/01/04 09:19:21;;;;;;;38.05;26.88;;;179.70;2252.80;;;;;;4991537;28;20049;-77
2021/01/04 09:21:47;;;;;;;46.30;31.13;;;180.00;2252.80;;;;;;5023200;28;20036;-77
2021/01/04 09:24:22;;;;;;;42.63;29.65;;;179.80;2252.80;;;;;;5013207;28;20060;-77
2021/01/04 09:26:51;;;;;;;35.97;24.80;;;179.90;2252.80;;;;;;5039641;28;20526;-77
2021/01/04 09:29:27;;;;;;;35.35;25.30;;;180.00;2252.80;;;;;;5020590;28;20041;-76
2021/01/04 09:31:58;;;;;;;63.83;39.03;;;179.90;2252.80;;;;;;5018684;28;20055;-76
2021/01/04 09:34:28;;;;;;;46.55;30.05;;;180.00;2252.80;;;;;;5011921;28;20021;-76
2021/01/04 09:37:02;;;;;;;44.95;29.98;;;180.00;2252.80;;;;;;5011395;28;20030;-77
2021/01/04 09:39:31;;;;;;;35.97;24.77;;;180.00;2252.80;;;;;;5039665;28;20021;-76
2021/01/04 09:41:59;;;;;;;32.25;23.88;;;180.10;2252.80;;;;;;5039410;28;20029;-76
2021/01/04 09:44:25;;;;;;;46.78;30.63;;;180.10;2252.80;;;;;;5037559;28;20430;-76
2021/01/04 09:47:17;;;;;;;38.28;27.35;;;180.10;2252.80;;;;;;5018806;28;20079;-76
2021/01/04 09:49:47;;;;;;;35.72;25.27;;;180.10;2252.80;;;;;;5036326;28;20018;-76
2021/01/04 09:52:25;;;;;;;39.58;27.15;;;180.10;2252.80;;;;;;5030260;28;20024;-76
2021/01/04 09:54:55;;;;;;;53.47;35.58;;;180.10;2252.80;;;;;;5032070;28;20022;-76
2021/01/04 09:57:22;;;;;;;56.75;38.00;;;180.10;2252.80;;;;;;5036781;28;20033;-77
2021/01/04 09:59:50;;;;;;;56.67;41.30;;;180.10;2252.80;;;;;;5018755;28;20401;-77
2021/01/04 10:02:34;;;;;;;42.97;30.63;;;204.80;2252.80;;;;;;5028709;28;20022;-76
2021/01/04 10:05:11;;;;;;;53.60;35.15;;;204.80;2252.80;;;;;;5019195;28;20025;-76
2021/01/04 10:07:39;;;;;;;43.10;28.50;;;204.90;2252.80;;;;;;5034839;28;20021;-76
2021/01/04 10:10:14;;;;;;;43.05;30.30;;;204.90;2252.80;;;;;;5009027;28;20102;-77
2021/01/04 10:12:40;;;;;;;50.50;34.95;;;205.00;2252.80;;;;;;5021989;28;20021;-76
2021/01/04 10:15:18;;;;;;;47.75;33.30;;;205.00;2252.80;;;;;;5011600;28;20030;-76
2021/01/04 10:17:53;;;;;;;39.85;29.63;;;205.10;2252.80;;;;;;5039219;28;20021;-76
2021/01/04 10:20:33;;;;;;;42.10;30.85;;;205.20;2252.80;;;;;;5021932;28;20441;-76
2021/01/04 10:23:01;;;;;;;44.95;30.50;;;205.30;2252.80;;;;;;5019242;28;20018;-76
2021/01/04 10:25:39;;;;;;;49.28;35.40;;;205.40;2252.80;;;;;;5021712;28;20050;-77
2021/01/04 10:28:06;;;;;;;42.92;29.95;;;205.40;2252.80;;;;;;5017654;28;20033;-76
2021/01/04 10:30:32;;;;;;;46.78;29.08;;;205.30;2252.80;;;;;;5010802;28;20023;-76
2021/01/04 10:33:32;;;;;;;34.70;26.45;;;205.40;2252.80;;;;;;5018575;28;20033;-77
2021/01/04 10:36:13;;;;;;;126.20;86.95;;;205.50;2252.80;;;;;;4992845;28;20038;-76
2021/01/04 10:38:45;;;;;;;49.42;31.55;;;205.40;2252.80;;;;;;5028962;28;20025;-76
2021/01/04 10:41:15;;;;;;;44.58;31.08;;;205.40;2252.80;;;;;;5022204;28;20021;-77
2021/01/04 10:43:40;;;;;;;41.78;28.33;;;205.40;2252.80;;;;;;5043658;28;20049;-77
2021/01/04 10:46:18;;;;;;;53.78;37.85;;;205.30;2252.80;;;;;;5024916;28;20025;-77
2021/01/04 10:49:05;;;;;;;69.50;50.58;;;205.20;2252.80;;;;;;5029934;28;20097;-76
2021/01/04 10:51:32;;;;;;;136.45;81.85;;;205.20;2252.80;;;;;;5039692;28;20028;-76
2021/01/04 10:53:58;;;;;;;90.43;59.55;;;205.10;2252.80;;;;;;5024488;28;20022;-77
2021/01/04 10:56:43;;;;;;;158.43;101.22;;;205.10;2252.80;;;;;;5020440;28;20022;-77
2021/01/04 10:59:33;;;;;;;125.20;84.55;;;205.10;2252.80;;;;;;5022676;28;20033;-77
2021/01/04 11:01:59;;;;;;;119.80;83.95;;;205.10;2252.80;;;;;;5019790;28;20337;-76
2021/01/04 11:04:26;;;;;;;81.43;55.60;;;205.00;2252.80;;;;;;5020719;28;20109;-77
2021/01/04 11:07:06;;;;;;;79.05;55.30;;;205.00;2252.80;;;;;;5023992;28;20048;-76
2021/01/04 11:09:39;;;;;;;76.13;53.35;;;205.00;2252.80;;;;;;5023199;28;20119;-77
2021/01/04 11:12:09;;;;;;;66.45;40.08;;;205.00;2252.80;;;;;;5035313;28;20021;-76
2021/01/04 11:14:36;;;;;;;80.40;48.20;;;205.00;2252.80;;;;;;5035963;28;20097;-76
2021/01/04 11:17:22;;;;;;;73.55;48.42;;;204.90;2252.80;;;;;;5022247;28;20033;-77
2021/01/04 11:19:50;;;;;;;101.78;59.42;;;204.90;2252.80;;;;;;5024754;28;20331;-77
2021/01/04 11:22:24;;;;;;;191.60;101.55;;;204.90;2252.80;;;;;;5034945;28;20044;-76
2021/01/04 11:24:51;;;;;;;94.72;61.55;;;204.90;2252.80;;;;;;5033536;28;20552;-77
2021/01/04 11:27:18;;;;;;;206.35;118.25;;;204.90;2252.80;;;;;;5022293;28;20525;-77
2021/01/04 11:29:44;;;;;;;110.13;77.32;;;204.90;2252.80;;;;;;5041733;28;20017;-77
2021/01/04 11:32:12;;;;;;;92.32;61.78;;;204.90;2252.80;;;;;;5038992;28;20021;-76
2021/01/04 11:35:00;;;;;;;75.63;49.58;;;204.90;2252.80;;;;;;5035812;28;20021;-77
2021/01/04 11:37:26;;;;;;;53.03;38.00;;;205.00;2252.80;;;;;;5026188;28;20028;-77
2021/01/04 11:39:52;;;;;;;52.65;37.47;;;205.00;2252.80;;;;;;5021887;28;20021;-76
2021/01/04 11:42:19;;;;;;;93.20;56.13;;;204.90;2252.80;;;;;;5015611;28;20171;-76
2021/01/04 11:44:45;;;;;;;65.95;47.00;;;205.00;2252.80;;;;;;5033337;28;20029;-76
2021/01/04 11:47:11;;;;;;;71.30;47.28;;;205.00;2252.80;;;;;;5018933;28;20387;-76
2021/01/04 11:49:37;;;;;;;76.00;52.47;;;205.00;2252.80;;;;;;5010552;28;20032;-76
2021/01/04 11:52:04;;;;;;;76.95;48.30;;;204.90;2252.80;;;;;;5033515;28;20017;-76
2021/01/04 11:54:31;;;;;;;69.72;45.65;;;205.00;2252.80;;;;;;5033122;28;20032;-76
2021/01/04 11:56:57;;;;;;;76.00;48.35;;;204.90;2252.80;;;;;;5012687;28;20072;-77
2021/01/04 11:59:23;;;;;;;63.22;39.55;;;204.90;2252.80;;;;;;5013273;28;20032;-76
2021/01/04 12:01:53;;;;;;;58.80;37.53;;;205.00;2252.80;;;;;;5014880;28;20075;-76
2021/01/04 12:04:19;;;;;;;70.00;42.47;;;204.90;2252.80;;;;;;5035439;28;20030;-76
2021/01/04 12:06:49;;;;;;;69.78;43.35;;;204.90;2252.80;;;;;;5011700;28;20033;-76
2021/01/04 12:09:15;;;;;;;54.45;36.72;;;204.90;2252.80;;;;;;5021159;28;20445;-76
2021/01/04 12:11:41;;;;;;;55.45;35.45;;;204.80;2252.80;;;;;;5023569;28;20018;-76
2021/01/04 12:14:08;;;;;;;53.95;36.08;;;204.80;2252.80;;;;;;5038265;28;20068;-76
2021/01/04 12:16:35;;;;;;;53.25;34.97;;;204.90;2252.80;;;;;;5021752;28;20368;-76
2021/01/04 12:19:03;;;;;;;51.10;31.98;;;204.80;2252.80;;;;;;5040184;28;20068;-76
2021/01/04 12:21:29;;;;;;;47.08;31.23;;;204.80;2252.80;;;;;;5021045;28;20042;-76
2021/01/04 12:23:55;;;;;;;43.17;32.33;;;204.80;2252.80;;;;;;5037354;28;20075;-76
2021/01/04 12:26:22;;;;;;;46.92;31.08;;;180.10;2252.80;;;;;;5037727;28;20282;-76
2021/01/04 12:28:48;;;;;;;59.45;38.15;;;180.10;2252.80;;;;;;5021786;28;20029;-76
2021/01/04 12:31:15;;;;;;;60.67;41.55;;;180.10;2252.80;;;;;;5037854;28;20013;-76
2021/01/04 12:33:41;;;;;;;63.83;40.95;;;204.80;2252.80;;;;;;5019419;28;20034;-76
2021/01/04 12:36:13;;;;;;;61.35;39.92;;;204.80;2252.80;;;;;;5021543;28;20056;-76
2021/01/04 12:38:39;;;;;;;53.47;34.00;;;204.80;2252.80;;;;;;5020575;28;20037;-76
2021/01/04 12:41:05;;;;;;;69.80;45.55;;;204.80;2252.80;;;;;;5040528;28;20096;-77
2021/01/04 12:43:34;;;;;;;57.35;42.72;;;204.90;2252.80;;;;;;5022779;28;20341;-76
2021/01/04 12:46:01;;;;;;;55.65;39.03;;;204.90;2252.80;;;;;;5017325;28;20676;-76
2021/01/04 12:48:27;;;;;;;59.22;41.50;;;204.90;2252.80;;;;;;5030127;28;20112;-76
2021/01/04 12:50:53;;;;;;;64.75;44.75;;;204.90;2252.80;;;;;;5034983;28;20056;-76